• Join FlightAware (Why Join?)
  • Login
  • US Flag 
10:57AM EDT


 

Airport Tracker/Info


-or-


 

Live Flight TrackerFlight Track Log ✈ EJA922 ✈ 30-Oct-2013 ✈ KAPA - KBOS

Flight Track Log - Related Links

Times and Time Zones

All times are in EDT time to prevent confusion due to time zone crossing. See the EJA922 flight status page for this flight to view local times or setup timezone preferences in your user account.

Time Position Orientation Groundspeed Altitude Reporting Facility
EDT Latitude Longitude Course Direction KTS MPH feet Rate Location/Type
07:37PM 39.6500 -104.8833 79° East 267 307 8,000  Level Denver TRACON
07:38PM 39.7167 -104.9333 330° Northwest 297 342 10,500 2,640 Climbing Denver TRACON
07:39PM 39.8000 -104.9167 North 325 374 13,300 2,880 Climbing Denver TRACON
07:40PM 39.8481 -104.8847 27° Northeast 339 390 14,900 2,760 Climbing Denver Center
07:41PM 39.8797 -104.7564 72° East 371 427 17,600 2,400 Climbing Denver Center
07:42PM 39.9000 -104.6156 79° East 385 443 19,900 2,040 Climbing Denver Center
07:43PM 39.8295 -103.7458 79° East  Level Estimated
07:43PM 39.9203 -104.4736 79° East 399 459 21,900  Level Denver Center
07:44PM 39.9411 -104.3269 79° East 400 460 24,100 2,220 Climbing Denver Center
07:45PM 39.9614 -104.1831 80° East 401 461 26,600 1,920 Climbing Denver Center
07:46PM 39.9822 -104.0361 79° East 413 475 28,100 1,080 Climbing Denver Center
07:47PM 40.0047 -103.8775 79° East 445 512 28,900 780 Climbing Denver Center
07:48PM 40.0367 -103.6683 79° East 492 566 29,800 840 Climbing Denver Center
07:49PM 40.0683 -103.4764 78° East 539 620 30,700 1,140 Climbing Denver Center
07:50PM 40.0997 -103.2792 78° East 555 639 32,200 1,560 Climbing Denver Center
07:51PM 40.1325 -103.0831 78° East 555 639 34,000 1,320 Climbing Denver Center
07:52PM 40.1631 -102.8853 79° East 556 640 35,000 1,200 Climbing Denver Center
07:53PM 40.1978 -102.6669 78° East 567 652 36,500 1,680 Climbing Denver Center
07:54PM 40.2311 -102.4469 79° East 555 639 38,500 1,440 Climbing Denver Center
07:55PM 40.2600 -102.2603 78° East 547 629 39,500 1,200 Climbing Denver Center
07:56PM 40.3119 -102.0447 72° East 556 640 41,000 720 Climbing Denver Center
07:57PM 40.3628 -101.8636 70° East 555 639 41,000  Level Denver Center
07:58PM 40.4239 -101.6433 70° East 576 663 41,000  Level Denver Center
07:59PM 40.4747 -101.4511 71° East 582 670 41,000  Level Denver Center
08:00PM 40.5342 -101.2261 71° East 584 672 41,000  Level Denver Center
08:02PM 40.5847 -101.0339 71° East 584 672 41,000  Level Denver Center
08:03PM 40.6428 -100.8094 71° East 586 674 41,000  Level Denver Center
08:04PM 40.6931 -100.6186 71° East 589 678 41,000  Level Denver Center
08:05PM 40.7511 -100.3942 71° East 589 678 41,000  Level Denver Center
08:06PM 40.8003 -100.1997 71° East 588 677 41,000  Level Denver Center
08:07PM 40.8592 -99.9717 71° East 590 679 41,000  Level Denver Center
08:08PM 40.9092 -99.7733 71° East 592 681 41,000  Level Denver Center
08:09PM 40.9614 -99.5647 72° East 596 686 41,000  Level Denver Center
08:10PM 41.0131 -99.3542 72° East 600 690 41,000  Level Denver Center
08:11PM 41.0750 -99.0997 72° East 603 694 41,000  Level Denver Center
08:12PM 41.1225 -98.9011 72° East 602 693 41,000  Level Denver Center
08:13PM 41.1797 -98.6656 72° East 603 694 41,000  Level Denver Center
08:14PM 41.2222 -98.4850 73° East 604 695 41,000  Level Denver Center
08:15PM 41.3019 -98.1447 73° East 603 694 41,000  Level Minneapolis Center
08:16PM 41.3492 -97.9417 73° East 602 693 41,000  Level Minneapolis Center
08:17PM 41.3986 -97.7286 73° East 603 694 41,000  Level Minneapolis Center
08:18PM 41.4456 -97.5183 73° East 596 686 41,000  Level Minneapolis Center
08:19PM 41.5047 -97.2589 73° East 604 695 41,000  Level Minneapolis Center
08:21PM 41.5514 -97.0442 74° East 602 693 41,000  Level Minneapolis Center
08:22PM 41.6003 -96.8281 73° East 604 695 41,000  Level Minneapolis Center
08:23PM 41.6472 -96.6114 74° East 604 695 41,000  Level Minneapolis Center
08:24PM 41.6950 -96.3933 74° East 605 696 41,000  Level Minneapolis Center
08:25PM 41.7417 -96.1742 74° East 607 699 41,000  Level Minneapolis Center
08:26PM 41.7886 -95.9533 74° East 608 700 41,000  Level Minneapolis Center
08:27PM 41.8339 -95.7339 74° East 607 699 41,000  Level Minneapolis Center
08:28PM 41.8881 -95.4706 74° East 608 700 41,000  Level Minneapolis Center
08:29PM 41.9328 -95.2519 75° East 607 699 41,000  Level Minneapolis Center
08:30PM 41.9775 -95.0308 75° East 611 703 41,000  Level Minneapolis Center
08:31PM 42.0203 -94.8094 75° East 612 704 41,000  Level Minneapolis Center
08:32PM 42.0642 -94.5894 75° East 610 702 41,000  Level Minneapolis Center
08:33PM 42.1075 -94.3661 75° East 616 709 41,000  Level Minneapolis Center
08:34PM 42.1511 -94.1447 75° East 615 708 41,000  Level Minneapolis Center
08:35PM 42.2028 -93.8772 75° East 615 708 41,000  Level Minneapolis Center
08:36PM 42.2436 -93.6644 75° East 616 709 41,000  Level Minneapolis Center
08:37PM 42.2844 -93.4408 76° East 620 713 41,000  Level Minneapolis Center
08:38PM 42.3250 -93.2175 76° East 619 712 41,000  Level Minneapolis Center
08:39PM 42.3514 -93.0814 75° East 620 713 41,000  Level Chicago Center
08:40PM 42.4000 -92.8117 76° East 621 715 41,000  Level Chicago Center
08:41PM 42.4406 -92.5892 76° East 616 709 41,000  Level Chicago Center
08:42PM 42.4792 -92.3675 77° East 613 705 41,000  Level Chicago Center
08:43PM 42.5178 -92.1458 77° East 612 704 41,000  Level Chicago Center
08:44PM 42.5561 -91.9247 77° East 611 703 41,000  Level Chicago Center
08:45PM 42.6006 -91.6586 77° East 618 711 41,000  Level Chicago Center
08:46PM 42.6386 -91.4372 77° East 622 716 41,000  Level Chicago Center
08:47PM 42.6758 -91.2147 77° East 621 715 41,000  Level Chicago Center
08:48PM 42.7197 -90.9422 78° East 623 717 41,000  Level Chicago Center
08:49PM 42.7572 -90.7142 77° East 625 719 41,000  Level Chicago Center
08:50PM 42.7925 -90.4844 78° East 626 720 41,000  Level Chicago Center
08:51PM 42.8292 -90.2564 78° East 625 719 41,000  Level Chicago Center
08:52PM 42.8636 -90.0264 78° East 624 718 41,000  Level Chicago Center
08:53PM 42.9044 -89.7536 78° East 623 717 41,000  Level Chicago Center
08:54PM 42.9389 -89.5256 78° East 618 711 41,000  Level Chicago Center
08:55PM 42.9733 -89.2944 78° East 622 716 41,000  Level Chicago Center
08:56PM 43.0069 -89.0636 79° East 624 718 41,000  Level Chicago Center
08:57PM 43.0458 -88.7861 79° East 625 719 41,000  Level Chicago Center
08:58PM 43.0783 -88.5564 79° East 626 720 41,000  Level Chicago Center
08:59PM 43.1092 -88.3247 80° East 629 724 41,000  Level Chicago Center
09:00PM 43.1275 -88.0486 85° East 618 711 41,000  Level Chicago Center
09:02PM 43.1378 -87.8178 86° East 613 705 41,000  Level Chicago Center
09:03PM 43.1489 -87.5833 86° East 620 713 41,000  Level Chicago Center
09:04PM 43.1597 -87.3289 87° East 624 718 41,000  Level Chicago Center
09:05PM 43.1697 -87.0939 87° East 621 715 41,000  Level Chicago Center
09:06PM 43.1778 -86.8589 87° East 618 711 41,000  Level Chicago Center
09:07PM 43.1869 -86.6214 87° East 624 718 41,000  Level Chicago Center
09:08PM 43.1950 -86.3839 87° East 623 717 41,000  Level Chicago Center
09:09PM 43.2031 -86.1422 87° East 627 722 41,000  Level Chicago Center
09:10PM 43.2106 -85.8961 88° East 628 723 41,000  Level Chicago Center
09:11PM 43.2167 -85.6531 88° East 628 723 41,000  Level Chicago Center
09:12PM 43.2222 -85.4153 88° East 625 719 41,000  Level Chicago Center
09:13PM 43.2283 -85.1294 88° East 625 719 41,000  Level Chicago Center
09:14PM 43.2353 -84.8919 88° East 623 717 41,000  Level Chicago Center
09:15PM 43.2392 -84.6544 89° East 625 719 41,000  Level Chicago Center
09:16PM 43.2436 -84.4158 88° East 626 720 41,000  Level Chicago Center
09:17PM 43.2436 -84.2233 90° East 626 720 41,000  Level Cleveland Center
09:18PM 43.2475 -83.9867 89° East 625 719 41,000  Level Cleveland Center
09:19PM 43.2489 -83.7133 90° East 625 719 41,000  Level Cleveland Center
09:20PM 43.2519 -83.4775 89° East 620 713 41,000  Level Cleveland Center
09:21PM 43.2531 -83.2389 90° East 623 717 41,000  Level Cleveland Center
09:22PM 43.2533 -83.0042 90° East 617 710 41,000  Level Cleveland Center
09:23PM 43.2522 -82.7683 90° East 617 710 41,000  Level Cleveland Center
09:24PM 43.2294 -82.5306 97° East 626 720 41,000  Level Cleveland Center
09:25PM 43.1833 -82.3000 105° East 620 713 41,000  Level Toronto Center
09:26PM 43.1500 -82.0500 100° East 620 713 41,000  Level Toronto Center
09:27PM 43.1333 -81.8333 96° East 620 713 41,000  Level Toronto Center
09:28PM 43.1000 -81.6000 101° East 620 713 41,000  Level Toronto Center
09:29PM 43.0500 -81.3667 106° East 620 713 41,000  Level Toronto Center
09:30PM 43.0167 -81.1333 101° East 620 713 41,000  Level Toronto Center
09:31PM 43.0167 -80.8833 90° East 620 713 41,000  Level Toronto Center
09:32PM 43.0167 -80.6667 90° East 620 713 41,000  Level Toronto Center
09:33PM 43.0000 -80.4333 95° East 620 713 41,000  Level Toronto Center
09:34PM 43.0000 -80.2000 90° East 610 702 41,000  Level Toronto Center
09:35PM 42.9833 -79.9500 95° East 610 702 41,000  Level Toronto Center
09:36PM 42.9667 -79.7500 96° East 600 690 41,000  Level Toronto Center
09:37PM 42.9667 -79.5000 90° East 600 690 41,000  Level Toronto Center
09:38PM 42.9500 -79.2667 95° East 600 690 41,000  Level Toronto Center
09:39PM 42.9500 -79.0667 90° East 590 679 41,000  Level Toronto Center
09:40PM 42.9333 -78.8333 95° East 590 679 41,000  Level Toronto Center
09:41PM 42.9308 -78.6856 91° East 589 678 41,000  Level Cleveland Center
09:42PM 42.9247 -78.4631 92° East 588 677 41,000  Level Cleveland Center
09:43PM 42.9194 -78.2425 92° East 584 672 41,000  Level Cleveland Center
09:44PM 42.9147 -78.0197 92° East 585 673 41,000  Level Cleveland Center
09:45PM 42.9097 -77.8008 92° East 570 656 41,000  Level Cleveland Center
09:46PM 42.9053 -77.5925 92° East 547 629 41,000  Level Cleveland Center
09:47PM 42.8992 -77.3753 92° East 560 644 41,000  Level Cleveland Center
09:48PM 42.8936 -77.1575 92° East 569 655 41,000  Level Cleveland Center
09:49PM 42.8872 -76.9422 92° East 568 654 41,000  Level Cleveland Center
09:50PM 42.8806 -76.7278 92° East 566 651 41,000  Level Cleveland Center
09:51PM 42.8744 -76.5628 93° East 565 650 41,000  Level Boston Center
09:52PM 42.8686 -76.3497 92° East 568 654 41,000  Level Boston Center
09:53PM 42.8611 -76.1367 93° East 568 654 41,000  Level Boston Center
09:54PM 42.8519 -75.9222 93° East 570 656 41,000  Level Boston Center
09:55PM 42.8436 -75.7058 93° East 574 661 41,000 -240 Level Boston Center
09:56PM 42.8333 -75.4919 94° East 574 661 40,600 -1,020 Descending Boston Center
09:57PM 42.8225 -75.2389 93° East 567 652 39,000 -1,500 Descending Boston Center
09:58PM 42.8111 -75.0200 94° East 586 674 37,600 -1,020 Descending Boston Center
09:59PM 42.8014 -74.8025 93° East 582 670 37,000 -300 Descending Boston Center
10:00PM 42.7892 -74.5864 94° East 580 667 37,000  Level Boston Center
10:01PM 42.7767 -74.3656 94° East 583 671 37,000  Level Boston Center
10:02PM 42.7647 -74.1453 94° East 585 673 37,000  Level Boston Center
10:03PM 42.7544 -73.9239 94° East 590 679 37,000 -840 Level Boston Center
10:04PM 42.7389 -73.7106 96° East 575 662 35,400 -1,920 Descending Boston Center
10:05PM 42.7161 -73.5047 98° East 557 641 33,100 -2,220 Descending Boston Center
10:06PM 42.6950 -73.3053 98° East 540 621 30,900 -2,100 Descending Boston Center
10:07PM 42.6739 -73.1136 98° East 515 593 28,900 -1,980 Descending Boston Center
10:08PM 42.6539 -72.9278 98° East 499 574 26,900 -1,980 Descending Boston Center
10:09PM 42.6325 -72.7472 99° East 480 552 24,900 -1,920 Descending Boston Center
10:10PM 42.6106 -72.5694 99° East 470 541 23,100 -1,620 Descending Boston Center
10:11PM 42.5864 -72.3756 100° East 442 509 21,700 -1,740 Descending Boston Center
10:12PM 42.5692 -72.2314 99° East 452 520 19,600 -2,220 Descending Boston Center
10:13PM 42.5458 -72.0444 100° East 419 482 17,300 -2,340 Descending Boston Center
10:14PM 42.5322 -71.8933 97° East 408 470 14,900 -2,280 Descending Boston Center
10:15PM 42.5186 -71.7414 97° East 408 470 12,700 -2,040 Descending Boston Center
10:16PM 42.5039 -71.5903 97° East 377 434 10,900 -1,740 Descending Boston Center
10:17PM 42.5000 -71.4667 92° East 296 341 9,300 -1,140 Descending KA90
10:18PM 42.4833 -71.3667 103° East 267 307 8,700 -900 Descending KA90
10:19PM 42.4667 -71.2833 105° East 257 296 7,500 -1,080 Descending KA90
10:20PM 42.4667 -71.1833 90° East 241 277 6,600 -780 Descending KA90
10:21PM 42.4833 -71.1167 71° East 218 251 6,000 -600 Descending KA90
10:22PM 42.5500 -71.0667 29° Northeast 205 236 5,400 -840 Descending KA90
10:23PM 42.6000 -71.0333 26° Northeast 202 232 4,400 -720 Descending KA90
10:24PM 42.6000 -70.9667 90° East 222 255 4,000 -300 Descending KA90
10:25PM 42.5667 -70.9000 124° Southeast 187 215 3,900 -300 Descending KA90
10:26PM 42.5333 -70.9333 216° Southwest 156 180 3,400 -720 Descending KA90
10:27PM 42.4833 -70.9500 194° South 156 180 2,500 -840 Descending KA90
10:28PM 42.4500 -70.9667 200° South 139 160 1,900 -780 Descending KA90
10:29PM 42.4167 -70.9833 200° South 126 145 1,100 -840 Descending KA90
10:30PM 42.3833 -70.9833 180° South 127 146 400 -780 Descending KA90
10:33PM 42.3630 -71.0064 North  Level Estimated